Sunday, July 22, 2018, 12:53 PM GMT
Back to Local

CWSA, Sable Island, N. S.

Location: , , Canada Lat: 43.933
Local Time: 12:53 PM GMT (12:53 GMT) Lon: -60.017
Time Zone: GMT Elev: 13 ft

Show me the last for .
Show Coded

Time T Td Feel RH Dir Speed Gust Alt SLP Vis Weather Sky Remarks
2018-07-22 12:41 64 63 - 93 180° 13 - 30.44 30.44 1 -RA BR VV002 Pressure rising rapidly
2018-07-22 12:00 63 63 - 100 180° 16 - 30.38 30.39 0 -RA FG VV002 None
2018-07-22 11:00 63 63 - 100 190° 15 - 30.39 30.39 0 -RA FG VV002 None
2018-07-22 10:14 63 63 - 100 180° 17 - 30.36 30.37 0 -RA FG VV003 Pressure falling rapidly
2018-07-22 10:00 63 63 - 100 180° 16 - 30.38 30.38 0 FG VV003 Pressure rising rapidly
2018-07-22 09:49 63 63 - 100 180° 16 - 30.37 30.37 0 FG VV003 Pressure rising rapidly
2018-07-22 09:28 61 61 - 100 190° 13 - 30.34 30.34 0 -RA FG VV003 Pressure rising rapidly
2018-07-22 09:26 61 61 - 100 190° 14 - 30.34 30.34 0 FG VV003 Pressure rising rapidly
2018-07-22 09:19 61 61 - 100 180° 14 - 30.33 30.33 0 -RA FG VV004 None
2018-07-22 09:00 61 61 - 100 180° 16 - 30.32 30.32 0 -RA FG VV005 None
2018-07-22 08:53 63 63 - 100 180° 16 - 30.32 30.32 0 -RA FG VV005 None
2018-07-22 08:32 63 63 - 100 190° 17 - 30.32 30.32 0 FG VV005 None
2018-07-22 08:00 63 63 - 100 180° 18 - 30.31 30.32 0 -RA FG VV005 None
2018-07-22 07:45 63 63 - 100 180° 18 - 30.31 30.31 0 -RA FG VV005 None
2018-07-22 07:00 61 61 - 100 180° 16 - 30.30 30.30 0 -RA FG VV002 None
2018-07-22 06:00 63 63 - 100 170° 18 - 30.29 30.29 0 -RA FG VV002 None
2018-07-22 05:00 63 63 - 100 170° 18 - 30.31 30.31 0 -RA FG VV002 None
2018-07-22 04:29 63 63 - 100 180° 18 - 30.31 30.31 0 -RA FG VV003 None
2018-07-22 04:20 63 63 - 100 170° 18 - 30.32 30.32 0 BR VV004 None
2018-07-22 04:00 63 63 - 100 170° 20 - 30.32 30.32 0 -RA FG VV002 None
2018-07-22 03:00 63 63 - 100 160° 15 - 30.31 30.31 0 -RA FG VV002 None
2018-07-22 02:00 63 63 - 100 150° 15 - 30.29 30.29 0 -RA FG VV002 None
2018-07-22 01:05 63 63 - 100 170° 12 - 30.30 30.30 0 -RA FG VV004 None
2018-07-22 01:04 63 63 - 100 170° 12 - 30.30 30.30 0 -RA FG VV005 None
2018-07-22 01:00 63 63 - 100 160° 13 - 30.30 30.30 0 -RA FG VV004 None
2018-07-22 00:22 63 63 - 100 160° 13 - 30.28 30.28 0 -RA FG VV004 None
2018-07-22 00:07 63 63 - 100 160° 13 - 30.28 30.28 0 -RA FG BKN005 OVC046 None
2018-07-22 00:00 63 63 - 100 160° 13 - 30.28 30.28 0 -RA FG FEW010 OVC048 None
2018-07-21 23:44 63 63 - 100 160° 14 - 30.27 30.27 0 -RA FG SCT008 OVC048 None
2018-07-21 23:36 63 63 - 100 170° 12 17 30.27 30.27 0 -RA FG BKN006 OVC050 None
2018-07-21 23:14 63 63 - 100 160° 13 - 30.27 30.27 0 -RA FG VV004 None
2018-07-21 23:00 63 63 - 100 170° 12 - 30.26 30.26 0 -RA FG VV006 Pressure rising rapidly
2018-07-21 22:56 63 63 - 100 170° 13 - 30.25 30.26 0 -RA FG VV005 None
2018-07-21 22:29 63 61 - 93 160° 12 - 30.25 30.25 0 -RA FG VV004 None
2018-07-21 22:18 63 63 - 100 160° 13 - 30.24 30.25 0 -RA FG BKN007 OVC017 None
2018-07-21 22:01 63 63 - 100 170° 14 - 30.25 30.26 0 BR BKN011 OVC017 None
2018-07-21 22:00 63 63 - 100 170° 15 - 30.25 30.25 0 BR BKN009 OVC017 None
2018-07-21 21:54 63 63 - 100 170° 14 - 30.24 30.25 0 BR BKN009 OVC017 None
2018-07-21 21:04 63 63 - 100 170° 13 - 30.23 30.24 1 BR BKN005 None
2018-07-21 21:00 63 63 - 100 170° 13 18 30.23 30.24 1 BR SCT005 SCT120 None
2018-07-21 20:42 63 63 - 100 170° 17 - 30.24 30.24 1 BR SCT005 None
2018-07-21 20:23 63 63 - 100 170° 14 - 30.24 30.24 1 BR VV005 Pressure rising rapidly
2018-07-21 20:20 63 63 - 100 160° 15 - 30.24 30.24 0 BR VV005 Pressure rising rapidly
2018-07-21 20:04 63 63 - 100 160° 13 - 30.22 30.22 0 FG VV004 None
2018-07-21 20:03 63 63 - 100 160° 13 - 30.22 30.22 0 FG VV005 None
2018-07-21 20:00 63 63 - 100 160° 14 - 30.21 30.21 0 FG VV004 Pressure falling rapidly
2018-07-21 19:49 63 61 - 93 170° 12 17 30.22 30.23 0 FG VV004 Pressure falling rapidly
2018-07-21 19:36 64 63 - 93 170° 15 - 30.28 30.28 0 BR BKN005 Pressure falling rapidly
2018-07-21 19:27 66 64 - 93 170° 17 - 30.33 30.33 2 BR BKN005 BKN034 None
2018-07-21 19:22 66 64 - 93 170° 17 - 30.33 30.33 2 BR SCT005 SCT024 SCT034 Pressure rising rapidly
2018-07-21 19:15 66 64 - 93 180° 17 - 30.34 30.34 3 BR FEW016 SCT033 SCT042 Pressure rising rapidly
2018-07-21 19:00 64 64 - 100 170° 16 - 30.26 30.27 2 BR FEW025 BKN031 BKN042 None
2018-07-21 18:41 64 64 - 100 170° 15 - 30.27 30.27 1 BR SCT016 SCT060 Pressure rising rapidly
2018-07-21 18:38 64 64 - 100 170° 14 20 30.25 30.26 1 BR BKN016 Pressure rising rapidly
2018-07-21 18:37 64 64 - 100 170° 15 - 30.25 30.25 1 -RA BR BKN016 Pressure rising rapidly
2018-07-21 18:24 64 63 - 93 150° 14 - 30.20 30.20 0 -RA FG BKN023 BKN055 BKN072 None
2018-07-21 18:19 64 63 - 93 160° 14 20 30.20 30.20 0 -RA BR BKN030 BKN050 BKN065 Pressure rising rapidly
2018-07-21 18:17 64 63 - 93 160° 15 23 30.20 30.20 1 -RA BR BKN027 BKN055 BKN071 Pressure rising rapidly
2018-07-21 18:10 64 64 - 100 160° 17 23 30.20 30.21 1 -RA BR BKN022 BKN070 BKN081 None
2018-07-21 18:00 64 63 - 93 150° 16 22 30.19 30.19 0 -RA BR BKN020 OVC070 Pressure falling rapidly
2018-07-21 17:50 64 63 - 93 140° 17 - 30.22 30.22 0 -RA BR VV011 Pressure falling rapidly
2018-07-21 17:43 64 64 - 100 150° 16 - 30.25 30.25 1 -RA BR VV012 Pressure falling rapidly
2018-07-21 17:38 64 64 - 100 150° 17 - 30.26 30.26 0 -RA BR BKN010 OVC016 Pressure falling rapidly
2018-07-21 17:37 64 64 - 100 150° 17 - 30.26 30.26 1 -RA BR BKN010 OVC016 Pressure falling rapidly
2018-07-21 17:33 64 64 - 100 150° 16 - 30.27 30.27 1 BR BKN010 OVC016 Pressure falling rapidly
2018-07-21 17:26 66 64 - 93 150° 17 23 30.29 30.29 2 BR BKN008 Pressure rising rapidly
2018-07-21 17:16 66 66 - 100 150° 20 - 30.29 30.29 1 -RA BR VV005 Pressure rising rapidly
2018-07-21 17:13 66 64 - 93 150° 17 23 30.27 30.27 0 -RA BR VV005 Pressure rising rapidly
2018-07-21 17:00 64 63 - 93 140° 20 - 30.22 30.22 0 -RA BR VV004 None
2018-07-21 16:11 64 63 - 93 150° 17 23 30.23 30.23 0 -RA BR VV003 None
2018-07-21 16:09 64 63 - 93 140° 18 24 30.23 30.23 0 BR VV004 None
2018-07-21 16:00 64 63 - 93 140° 20 - 30.23 30.23 1 BR VV004 Pressure falling rapidly
2018-07-21 15:00 64 63 - 93 140° 15 - 30.31 30.31 1 BR OVC003 Pressure rising rapidly
2018-07-21 14:31 64 63 - 93 140° 17 - 30.30 30.30 1 BR VV003 None
2018-07-21 14:03 64 64 - 100 140° 17 - 30.32 30.32 0 BR VV002 Pressure rising rapidly
2018-07-21 14:00 64 63 - 93 140° 15 - 30.32 30.32 0 -RA BR VV002 Pressure rising rapidly
2018-07-21 13:00 63 63 - 100 130° 15 - 30.32 30.33 0 -RA FG VV002 Pressure rising rapidly

Support USWX by starting your Amazon purchase here.